sensor_id;sensor_type;location;lat;lon;timestamp;P1;durP1;ratioP1;P2;durP2;ratioP2
47589;SDS011;33316;52.298;9.056;2022-10-16T00:01:15;0.45;;;0.30;;
47589;SDS011;33316;52.298;9.056;2022-10-16T00:03:46;0.70;;;0.43;;
47589;SDS011;33316;52.298;9.056;2022-10-16T00:06:16;0.85;;;0.30;;
47589;SDS011;33316;52.298;9.056;2022-10-16T00:08:44;0.82;;;0.40;;
47589;SDS011;33316;52.298;9.056;2022-10-16T00:11:15;1.10;;;0.47;;
47589;SDS011;33316;52.298;9.056;2022-10-16T00:16:13;1.10;;;0.40;;
47589;SDS011;33316;52.298;9.056;2022-10-16T00:18:40;0.70;;;0.30;;
47589;SDS011;33316;52.298;9.056;2022-10-16T00:21:10;0.93;;;0.40;;
47589;SDS011;33316;52.298;9.056;2022-10-16T00:23:41;1.52;;;0.40;;
47589;SDS011;33316;52.298;9.056;2022-10-16T00:26:09;0.95;;;0.55;;
47589;SDS011;33316;52.298;9.056;2022-10-16T00:28:38;0.90;;;0.40;;
47589;SDS011;33316;52.298;9.056;2022-10-16T00:31:05;1.77;;;0.60;;
47589;SDS011;33316;52.298;9.056;2022-10-16T00:33:33;1.20;;;0.82;;
47589;SDS011;33316;52.298;9.056;2022-10-16T00:36:06;1.35;;;0.70;;
47589;SDS011;33316;52.298;9.056;2022-10-16T00:38:35;0.90;;;0.65;;
47589;SDS011;33316;52.298;9.056;2022-10-16T00:41:07;1.65;;;0.80;;
47589;SDS011;33316;52.298;9.056;2022-10-16T00:43:39;1.48;;;0.75;;
47589;SDS011;33316;52.298;9.056;2022-10-16T00:46:13;2.28;;;1.02;;
47589;SDS011;33316;52.298;9.056;2022-10-16T00:48:45;1.30;;;0.77;;
47589;SDS011;33316;52.298;9.056;2022-10-16T00:51:14;3.08;;;1.20;;
47589;SDS011;33316;52.298;9.056;2022-10-16T00:53:43;2.60;;;1.23;;
47589;SDS011;33316;52.298;9.056;2022-10-16T00:56:12;2.30;;;0.90;;
47589;SDS011;33316;52.298;9.056;2022-10-16T00:58:39;5.10;;;1.48;;
47589;SDS011;33316;52.298;9.056;2022-10-16T01:01:06;2.78;;;1.50;;
47589;SDS011;33316;52.298;9.056;2022-10-16T01:03:36;0.90;;;0.70;;
47589;SDS011;33316;52.298;9.056;2022-10-16T01:09:04;1.63;;;1.08;;
47589;SDS011;33316;52.298;9.056;2022-10-16T01:11:41;1.48;;;0.77;;
47589;SDS011;33316;52.298;9.056;2022-10-16T01:14:19;2.33;;;1.00;;
47589;SDS011;33316;52.298;9.056;2022-10-16T01:17:00;3.03;;;1.20;;
47589;SDS011;33316;52.298;9.056;2022-10-16T01:19:36;1.50;;;0.90;;
47589;SDS011;33316;52.298;9.056;2022-10-16T01:22:16;3.08;;;1.00;;
47589;SDS011;33316;52.298;9.056;2022-10-16T01:24:45;1.45;;;0.70;;
47589;SDS011;33316;52.298;9.056;2022-10-16T01:27:19;0.80;;;0.50;;
47589;SDS011;33316;52.298;9.056;2022-10-16T01:29:51;2.03;;;0.82;;
47589;SDS011;33316;52.298;9.056;2022-10-16T01:32:24;1.20;;;0.82;;
47589;SDS011;33316;52.298;9.056;2022-10-16T01:34:58;1.10;;;0.75;;
47589;SDS011;33316;52.298;9.056;2022-10-16T01:37:36;1.17;;;0.65;;
47589;SDS011;33316;52.298;9.056;2022-10-16T01:40:09;1.60;;;0.77;;
47589;SDS011;33316;52.298;9.056;2022-10-16T01:42:41;1.95;;;0.82;;
47589;SDS011;33316;52.298;9.056;2022-10-16T01:45:13;2.15;;;0.95;;
47589;SDS011;33316;52.298;9.056;2022-10-16T01:47:49;3.17;;;0.75;;
47589;SDS011;33316;52.298;9.056;2022-10-16T01:50:18;1.83;;;0.95;;
47589;SDS011;33316;52.298;9.056;2022-10-16T01:52:51;2.13;;;0.90;;
47589;SDS011;33316;52.298;9.056;2022-10-16T01:55:22;1.17;;;0.80;;
47589;SDS011;33316;52.298;9.056;2022-10-16T01:57:57;1.20;;;0.80;;
47589;SDS011;33316;52.298;9.056;2022-10-16T02:00:27;2.42;;;0.75;;
47589;SDS011;33316;52.298;9.056;2022-10-16T02:02:59;1.80;;;0.73;;
47589;SDS011;33316;52.298;9.056;2022-10-16T02:05:30;1.00;;;0.70;;
47589;SDS011;33316;52.298;9.056;2022-10-16T02:08:00;1.27;;;0.73;;
47589;SDS011;33316;52.298;9.056;2022-10-16T02:10:31;2.30;;;0.80;;
47589;SDS011;33316;52.298;9.056;2022-10-16T02:13:02;1.60;;;0.82;;
47589;SDS011;33316;52.298;9.056;2022-10-16T02:15:33;1.00;;;0.80;;
47589;SDS011;33316;52.298;9.056;2022-10-16T02:18:04;2.30;;;0.90;;
47589;SDS011;33316;52.298;9.056;2022-10-16T02:20:34;1.35;;;0.90;;
47589;SDS011;33316;52.298;9.056;2022-10-16T02:23:09;2.38;;;1.00;;
47589;SDS011;33316;52.298;9.056;2022-10-16T02:25:48;2.28;;;0.80;;
47589;SDS011;33316;52.298;9.056;2022-10-16T02:28:22;2.78;;;0.57;;
47589;SDS011;33316;52.298;9.056;2022-10-16T02:30:53;2.55;;;1.00;;
47589;SDS011;33316;52.298;9.056;2022-10-16T02:33:27;1.58;;;0.70;;
47589;SDS011;33316;52.298;9.056;2022-10-16T02:35:56;1.25;;;0.77;;
47589;SDS011;33316;52.298;9.056;2022-10-16T02:38:26;1.90;;;0.60;;
47589;SDS011;33316;52.298;9.056;2022-10-16T02:40:56;2.85;;;0.80;;
47589;SDS011;33316;52.298;9.056;2022-10-16T02:43:25;3.63;;;0.93;;
47589;SDS011;33316;52.298;9.056;2022-10-16T02:45:55;1.60;;;0.80;;
47589;SDS011;33316;52.298;9.056;2022-10-16T02:48:25;3.67;;;1.17;;
47589;SDS011;33316;52.298;9.056;2022-10-16T02:50:51;1.70;;;0.80;;
47589;SDS011;33316;52.298;9.056;2022-10-16T02:53:18;2.70;;;1.00;;
47589;SDS011;33316;52.298;9.056;2022-10-16T02:55:45;2.42;;;0.80;;
47589;SDS011;33316;52.298;9.056;2022-10-16T02:58:12;2.85;;;1.00;;
47589;SDS011;33316;52.298;9.056;2022-10-16T03:00:40;1.95;;;0.70;;
47589;SDS011;33316;52.298;9.056;2022-10-16T03:03:11;2.38;;;0.80;;
47589;SDS011;33316;52.298;9.056;2022-10-16T03:05:45;1.73;;;0.77;;
47589;SDS011;33316;52.298;9.056;2022-10-16T03:08:12;1.35;;;0.60;;
47589;SDS011;33316;52.298;9.056;2022-10-16T03:10:39;2.17;;;0.88;;
47589;SDS011;33316;52.298;9.056;2022-10-16T03:13:06;0.98;;;0.60;;
47589;SDS011;33316;52.298;9.056;2022-10-16T03:15:33;3.13;;;1.05;;
47589;SDS011;33316;52.298;9.056;2022-10-16T03:20:34;2.03;;;0.88;;
47589;SDS011;33316;52.298;9.056;2022-10-16T03:23:01;2.08;;;0.90;;
47589;SDS011;33316;52.298;9.056;2022-10-16T03:25:28;1.33;;;0.88;;
47589;SDS011;33316;52.298;9.056;2022-10-16T03:27:57;3.53;;;0.80;;
47589;SDS011;33316;52.298;9.056;2022-10-16T03:30:24;2.47;;;1.05;;
47589;SDS011;33316;52.298;9.056;2022-10-16T03:32:53;1.80;;;0.77;;
47589;SDS011;33316;52.298;9.056;2022-10-16T03:35:21;2.47;;;1.20;;
47589;SDS011;33316;52.298;9.056;2022-10-16T03:37:49;2.92;;;1.45;;
47589;SDS011;33316;52.298;9.056;2022-10-16T03:40:16;2.50;;;1.10;;
47589;SDS011;33316;52.298;9.056;2022-10-16T03:42:43;2.35;;;0.90;;
47589;SDS011;33316;52.298;9.056;2022-10-16T03:45:12;3.67;;;1.17;;
47589;SDS011;33316;52.298;9.056;2022-10-16T03:47:39;2.28;;;1.10;;
47589;SDS011;33316;52.298;9.056;2022-10-16T03:50:06;1.35;;;0.90;;
47589;SDS011;33316;52.298;9.056;2022-10-16T03:52:35;2.83;;;0.95;;
47589;SDS011;33316;52.298;9.056;2022-10-16T03:55:02;1.50;;;0.93;;
47589;SDS011;33316;52.298;9.056;2022-10-16T03:57:29;2.85;;;1.08;;
47589;SDS011;33316;52.298;9.056;2022-10-16T03:59:59;2.58;;;1.00;;
47589;SDS011;33316;52.298;9.056;2022-10-16T04:02:26;2.33;;;1.13;;
47589;SDS011;33316;52.298;9.056;2022-10-16T04:04:53;3.47;;;1.00;;
47589;SDS011;33316;52.298;9.056;2022-10-16T04:07:23;3.28;;;1.27;;
47589;SDS011;33316;52.298;9.056;2022-10-16T04:09:51;3.10;;;0.95;;
47589;SDS011;33316;52.298;9.056;2022-10-16T04:12:21;2.75;;;0.93;;
47589;SDS011;33316;52.298;9.056;2022-10-16T04:14:48;1.90;;;0.90;;
47589;SDS011;33316;52.298;9.056;2022-10-16T04:17:15;1.50;;;0.82;;
47589;SDS011;33316;52.298;9.056;2022-10-16T04:19:44;3.28;;;0.85;;
47589;SDS011;33316;52.298;9.056;2022-10-16T04:22:11;1.77;;;0.80;;
47589;SDS011;33316;52.298;9.056;2022-10-16T04:24:46;2.17;;;0.77;;
47589;SDS011;33316;52.298;9.056;2022-10-16T04:27:15;1.95;;;0.70;;
47589;SDS011;33316;52.298;9.056;2022-10-16T04:29:41;3.67;;;1.00;;
47589;SDS011;33316;52.298;9.056;2022-10-16T04:32:08;2.28;;;0.60;;
47589;SDS011;33316;52.298;9.056;2022-10-16T04:34:38;1.67;;;0.73;;
47589;SDS011;33316;52.298;9.056;2022-10-16T04:37:05;1.13;;;0.70;;
47589;SDS011;33316;52.298;9.056;2022-10-16T04:39:32;1.08;;;0.68;;
47589;SDS011;33316;52.298;9.056;2022-10-16T04:41:59;2.40;;;0.77;;
47589;SDS011;33316;52.298;9.056;2022-10-16T04:44:27;3.67;;;0.98;;
47589;SDS011;33316;52.298;9.056;2022-10-16T04:47:02;0.90;;;0.50;;
47589;SDS011;33316;52.298;9.056;2022-10-16T04:49:29;1.23;;;0.70;;
47589;SDS011;33316;52.298;9.056;2022-10-16T04:51:56;1.27;;;0.60;;
47589;SDS011;33316;52.298;9.056;2022-10-16T04:54:23;0.60;;;0.45;;
47589;SDS011;33316;52.298;9.056;2022-10-16T04:56:52;1.42;;;0.70;;
47589;SDS011;33316;52.298;9.056;2022-10-16T04:59:19;2.22;;;0.73;;
47589;SDS011;33316;52.298;9.056;2022-10-16T05:01:48;1.55;;;0.73;;
47589;SDS011;33316;52.298;9.056;2022-10-16T05:04:14;1.20;;;0.55;;
47589;SDS011;33316;52.298;9.056;2022-10-16T05:06:42;1.00;;;0.70;;
47589;SDS011;33316;52.298;9.056;2022-10-16T05:09:09;1.73;;;0.65;;
47589;SDS011;33316;52.298;9.056;2022-10-16T05:11:36;1.58;;;0.50;;
47589;SDS011;33316;52.298;9.056;2022-10-16T05:14:02;2.10;;;0.70;;
47589;SDS011;33316;52.298;9.056;2022-10-16T05:16:29;0.90;;;0.60;;
47589;SDS011;33316;52.298;9.056;2022-10-16T05:18:58;3.92;;;0.77;;
47589;SDS011;33316;52.298;9.056;2022-10-16T05:21:24;1.42;;;0.60;;
47589;SDS011;33316;52.298;9.056;2022-10-16T05:23:52;1.58;;;0.60;;
47589;SDS011;33316;52.298;9.056;2022-10-16T05:26:20;2.72;;;0.50;;
47589;SDS011;33316;52.298;9.056;2022-10-16T05:28:46;1.05;;;0.50;;
47589;SDS011;33316;52.298;9.056;2022-10-16T05:31:13;0.80;;;0.60;;
47589;SDS011;33316;52.298;9.056;2022-10-16T05:33:40;3.28;;;0.70;;
47589;SDS011;33316;52.298;9.056;2022-10-16T05:36:09;0.80;;;0.50;;
47589;SDS011;33316;52.298;9.056;2022-10-16T05:38:36;1.42;;;0.50;;
47589;SDS011;33316;52.298;9.056;2022-10-16T05:41:04;2.78;;;0.60;;
47589;SDS011;33316;52.298;9.056;2022-10-16T05:43:31;2.30;;;0.70;;
47589;SDS011;33316;52.298;9.056;2022-10-16T05:45:59;1.13;;;0.60;;
47589;SDS011;33316;52.298;9.056;2022-10-16T05:48:27;1.55;;;0.50;;
47589;SDS011;33316;52.298;9.056;2022-10-16T05:50:57;0.93;;;0.50;;
47589;SDS011;33316;52.298;9.056;2022-10-16T05:53:26;2.17;;;0.60;;
47589;SDS011;33316;52.298;9.056;2022-10-16T05:55:53;1.73;;;0.70;;
47589;SDS011;33316;52.298;9.056;2022-10-16T05:58:20;2.33;;;0.77;;
47589;SDS011;33316;52.298;9.056;2022-10-16T06:00:54;0.45;;;0.43;;
47589;SDS011;33316;52.298;9.056;2022-10-16T06:03:21;0.90;;;0.50;;
47589;SDS011;33316;52.298;9.056;2022-10-16T06:05:48;1.27;;;0.60;;
47589;SDS011;33316;52.298;9.056;2022-10-16T06:08:15;3.40;;;0.77;;
47589;SDS011;33316;52.298;9.056;2022-10-16T06:10:44;1.75;;;0.50;;
47589;SDS011;33316;52.298;9.056;2022-10-16T06:13:11;0.73;;;0.35;;
47589;SDS011;33316;52.298;9.056;2022-10-16T06:15:38;1.20;;;0.40;;
47589;SDS011;33316;52.298;9.056;2022-10-16T06:18:07;1.75;;;0.60;;
47589;SDS011;33316;52.298;9.056;2022-10-16T06:20:34;1.55;;;0.50;;
47589;SDS011;33316;52.298;9.056;2022-10-16T06:23:00;1.38;;;0.50;;
47589;SDS011;33316;52.298;9.056;2022-10-16T06:25:29;0.52;;;0.32;;
47589;SDS011;33316;52.298;9.056;2022-10-16T06:27:57;0.75;;;0.40;;
47589;SDS011;33316;52.298;9.056;2022-10-16T06:30:24;0.65;;;0.40;;
47589;SDS011;33316;52.298;9.056;2022-10-16T06:32:50;0.20;;;0.20;;
47589;SDS011;33316;52.298;9.056;2022-10-16T06:35:17;1.00;;;0.43;;
47589;SDS011;33316;52.298;9.056;2022-10-16T06:37:44;0.85;;;0.30;;
47589;SDS011;33316;52.298;9.056;2022-10-16T06:40:11;0.57;;;0.45;;
47589;SDS011;33316;52.298;9.056;2022-10-16T06:42:39;1.67;;;0.40;;
47589;SDS011;33316;52.298;9.056;2022-10-16T06:45:08;0.45;;;0.30;;
47589;SDS011;33316;52.298;9.056;2022-10-16T06:47:35;0.93;;;0.50;;
47589;SDS011;33316;52.298;9.056;2022-10-16T06:50:02;0.90;;;0.45;;
47589;SDS011;33316;52.298;9.056;2022-10-16T06:52:31;1.23;;;0.50;;
47589;SDS011;33316;52.298;9.056;2022-10-16T06:54:58;1.25;;;0.30;;
47589;SDS011;33316;52.298;9.056;2022-10-16T06:57:25;1.63;;;0.40;;
47589;SDS011;33316;52.298;9.056;2022-10-16T06:59:51;1.40;;;0.43;;
47589;SDS011;33316;52.298;9.056;2022-10-16T07:02:20;0.38;;;0.32;;
47589;SDS011;33316;52.298;9.056;2022-10-16T07:04:47;0.35;;;0.30;;
47589;SDS011;33316;52.298;9.056;2022-10-16T07:07:13;0.40;;;0.30;;
47589;SDS011;33316;52.298;9.056;2022-10-16T07:09:40;1.45;;;0.40;;
47589;SDS011;33316;52.298;9.056;2022-10-16T07:12:07;0.82;;;0.40;;
47589;SDS011;33316;52.298;9.056;2022-10-16T07:14:34;0.93;;;0.40;;
47589;SDS011;33316;52.298;9.056;2022-10-16T07:17:00;2.28;;;0.22;;
47589;SDS011;33316;52.298;9.056;2022-10-16T07:19:29;0.65;;;0.30;;
47589;SDS011;33316;52.298;9.056;2022-10-16T07:21:56;1.05;;;0.40;;
47589;SDS011;33316;52.298;9.056;2022-10-16T07:24:23;2.00;;;0.30;;
47589;SDS011;33316;52.298;9.056;2022-10-16T07:26:49;1.25;;;0.40;;
47589;SDS011;33316;52.298;9.056;2022-10-16T07:29:17;0.40;;;0.20;;
47589;SDS011;33316;52.298;9.056;2022-10-16T07:31:46;0.40;;;0.35;;
47589;SDS011;33316;52.298;9.056;2022-10-16T07:34:15;0.55;;;0.30;;
47589;SDS011;33316;52.298;9.056;2022-10-16T07:36:46;1.48;;;0.30;;
47589;SDS011;33316;52.298;9.056;2022-10-16T07:39:13;0.63;;;0.30;;
47589;SDS011;33316;52.298;9.056;2022-10-16T07:41:40;0.40;;;0.30;;
47589;SDS011;33316;52.298;9.056;2022-10-16T07:44:07;1.48;;;0.50;;
47589;SDS011;33316;52.298;9.056;2022-10-16T07:46:35;1.38;;;0.30;;
47589;SDS011;33316;52.298;9.056;2022-10-16T07:49:01;1.25;;;0.57;;
47589;SDS011;33316;52.298;9.056;2022-10-16T07:51:28;0.73;;;0.38;;
47589;SDS011;33316;52.298;9.056;2022-10-16T07:53:57;0.73;;;0.22;;
47589;SDS011;33316;52.298;9.056;2022-10-16T07:56:23;0.63;;;0.30;;
47589;SDS011;33316;52.298;9.056;2022-10-16T07:58:50;1.00;;;0.40;;
47589;SDS011;33316;52.298;9.056;2022-10-16T08:01:18;0.30;;;0.30;;
47589;SDS011;33316;52.298;9.056;2022-10-16T08:03:46;1.45;;;0.40;;
47589;SDS011;33316;52.298;9.056;2022-10-16T08:06:13;0.30;;;0.22;;
47589;SDS011;33316;52.298;9.056;2022-10-16T08:08:40;0.30;;;0.28;;
47589;SDS011;33316;52.298;9.056;2022-10-16T08:11:09;0.32;;;0.20;;
47589;SDS011;33316;52.298;9.056;2022-10-16T08:13:36;2.25;;;0.25;;
47589;SDS011;33316;52.298;9.056;2022-10-16T08:16:03;0.80;;;0.30;;
47589;SDS011;33316;52.298;9.056;2022-10-16T08:18:33;1.65;;;0.45;;
47589;SDS011;33316;52.298;9.056;2022-10-16T08:21:00;1.70;;;0.50;;
47589;SDS011;33316;52.298;9.056;2022-10-16T08:23:27;1.85;;;0.40;;
47589;SDS011;33316;52.298;9.056;2022-10-16T08:25:54;0.82;;;0.40;;
47589;SDS011;33316;52.298;9.056;2022-10-16T08:28:23;1.27;;;0.50;;
47589;SDS011;33316;52.298;9.056;2022-10-16T08:30:50;0.65;;;0.30;;
47589;SDS011;33316;52.298;9.056;2022-10-16T08:33:17;0.68;;;0.30;;
47589;SDS011;33316;52.298;9.056;2022-10-16T08:35:49;0.30;;;0.30;;
47589;SDS011;33316;52.298;9.056;2022-10-16T08:38:17;2.83;;;0.45;;
47589;SDS011;33316;52.298;9.056;2022-10-16T08:40:44;2.08;;;0.73;;
47589;SDS011;33316;52.298;9.056;2022-10-16T08:46:06;0.52;;;0.40;;
47589;SDS011;33316;52.298;9.056;2022-10-16T08:48:47;0.85;;;0.30;;
47589;SDS011;33316;52.298;9.056;2022-10-16T08:51:18;4.47;;;0.40;;
47589;SDS011;33316;52.298;9.056;2022-10-16T08:53:49;0.70;;;0.38;;
47589;SDS011;33316;52.298;9.056;2022-10-16T08:56:20;1.23;;;0.38;;
47589;SDS011;33316;52.298;9.056;2022-10-16T08:58:49;1.08;;;0.30;;
47589;SDS011;33316;52.298;9.056;2022-10-16T09:01:17;0.65;;;0.40;;
47589;SDS011;33316;52.298;9.056;2022-10-16T09:03:54;1.02;;;0.40;;
47589;SDS011;33316;52.298;9.056;2022-10-16T09:06:35;1.30;;;0.20;;
47589;SDS011;33316;52.298;9.056;2022-10-16T09:09:24;1.10;;;0.35;;
47589;SDS011;33316;52.298;9.056;2022-10-16T09:12:10;0.77;;;0.30;;
47589;SDS011;33316;52.298;9.056;2022-10-16T09:14:47;1.50;;;0.30;;
47589;SDS011;33316;52.298;9.056;2022-10-16T09:17:34;0.82;;;0.30;;
47589;SDS011;33316;52.298;9.056;2022-10-16T09:20:19;1.30;;;0.38;;
47589;SDS011;33316;52.298;9.056;2022-10-16T09:22:53;0.80;;;0.40;;
47589;SDS011;33316;52.298;9.056;2022-10-16T09:25:26;1.27;;;0.20;;
47589;SDS011;33316;52.298;9.056;2022-10-16T09:27:53;0.80;;;0.40;;
47589;SDS011;33316;52.298;9.056;2022-10-16T09:30:22;1.02;;;0.40;;
47589;SDS011;33316;52.298;9.056;2022-10-16T09:32:56;2.22;;;0.30;;
47589;SDS011;33316;52.298;9.056;2022-10-16T09:35:27;0.73;;;0.32;;
47589;SDS011;33316;52.298;9.056;2022-10-16T09:37:58;0.93;;;0.50;;
47589;SDS011;33316;52.298;9.056;2022-10-16T09:40:26;1.00;;;0.30;;
47589;SDS011;33316;52.298;9.056;2022-10-16T09:43:01;0.57;;;0.30;;
47589;SDS011;33316;52.298;9.056;2022-10-16T09:45:40;1.45;;;0.30;;
47589;SDS011;33316;52.298;9.056;2022-10-16T09:48:09;0.70;;;0.28;;
47589;SDS011;33316;52.298;9.056;2022-10-16T09:50:40;0.73;;;0.40;;
47589;SDS011;33316;52.298;9.056;2022-10-16T09:53:10;1.35;;;0.30;;
47589;SDS011;33316;52.298;9.056;2022-10-16T09:58:14;0.88;;;0.20;;
47589;SDS011;33316;52.298;9.056;2022-10-16T10:00:42;1.25;;;0.38;;
47589;SDS011;33316;52.298;9.056;2022-10-16T10:03:30;1.25;;;0.40;;
47589;SDS011;33316;52.298;9.056;2022-10-16T10:06:03;1.10;;;0.30;;
47589;SDS011;33316;52.298;9.056;2022-10-16T10:08:51;1.98;;;0.70;;
47589;SDS011;33316;52.298;9.056;2022-10-16T10:14:15;1.58;;;0.38;;
47589;SDS011;33316;52.298;9.056;2022-10-16T10:17:00;1.13;;;0.30;;
47589;SDS011;33316;52.298;9.056;2022-10-16T10:19:38;1.88;;;0.55;;
47589;SDS011;33316;52.298;9.056;2022-10-16T10:22:13;0.95;;;0.30;;
47589;SDS011;33316;52.298;9.056;2022-10-16T10:24:57;0.82;;;0.15;;
47589;SDS011;33316;52.298;9.056;2022-10-16T10:27:43;2.38;;;0.30;;
47589;SDS011;33316;52.298;9.056;2022-10-16T10:30:24;0.82;;;0.40;;
47589;SDS011;33316;52.298;9.056;2022-10-16T10:32:58;1.25;;;0.30;;
47589;SDS011;33316;52.298;9.056;2022-10-16T10:35:43;1.25;;;0.30;;
47589;SDS011;33316;52.298;9.056;2022-10-16T10:38:19;0.98;;;0.30;;
47589;SDS011;33316;52.298;9.056;2022-10-16T10:40:57;1.10;;;0.22;;
47589;SDS011;33316;52.298;9.056;2022-10-16T10:43:37;2.75;;;0.40;;
47589;SDS011;33316;52.298;9.056;2022-10-16T10:46:14;0.85;;;0.30;;
47589;SDS011;33316;52.298;9.056;2022-10-16T10:48:54;1.85;;;0.40;;
47589;SDS011;33316;52.298;9.056;2022-10-16T10:51:36;1.65;;;0.40;;
47589;SDS011;33316;52.298;9.056;2022-10-16T10:54:13;1.58;;;0.55;;
47589;SDS011;33316;52.298;9.056;2022-10-16T10:56:45;1.63;;;0.30;;
47589;SDS011;33316;52.298;9.056;2022-10-16T10:59:27;0.55;;;0.20;;
47589;SDS011;33316;52.298;9.056;2022-10-16T11:02:09;0.63;;;0.20;;
47589;SDS011;33316;52.298;9.056;2022-10-16T11:04:56;0.55;;;0.30;;
47589;SDS011;33316;52.298;9.056;2022-10-16T11:07:43;0.80;;;0.40;;
47589;SDS011;33316;52.298;9.056;2022-10-16T11:10:16;0.88;;;0.30;;
47589;SDS011;33316;52.298;9.056;2022-10-16T11:12:47;1.50;;;0.30;;
47589;SDS011;33316;52.298;9.056;2022-10-16T11:15:19;0.43;;;0.30;;
47589;SDS011;33316;52.298;9.056;2022-10-16T11:17:52;2.78;;;0.35;;
47589;SDS011;33316;52.298;9.056;2022-10-16T11:20:24;1.95;;;0.30;;
47589;SDS011;33316;52.298;9.056;2022-10-16T11:22:53;0.77;;;0.17;;
47589;SDS011;33316;52.298;9.056;2022-10-16T11:25:23;1.00;;;0.30;;
47589;SDS011;33316;52.298;9.056;2022-10-16T11:27:54;1.08;;;0.20;;
47589;SDS011;33316;52.298;9.056;2022-10-16T11:30:24;1.13;;;0.30;;
47589;SDS011;33316;52.298;9.056;2022-10-16T11:32:54;0.80;;;0.30;;
47589;SDS011;33316;52.298;9.056;2022-10-16T11:35:34;0.60;;;0.20;;
47589;SDS011;33316;52.298;9.056;2022-10-16T11:38:09;2.55;;;0.22;;
47589;SDS011;33316;52.298;9.056;2022-10-16T11:40:41;0.80;;;0.45;;
47589;SDS011;33316;52.298;9.056;2022-10-16T11:43:14;1.33;;;0.28;;
47589;SDS011;33316;52.298;9.056;2022-10-16T11:45:46;1.30;;;0.20;;
47589;SDS011;33316;52.298;9.056;2022-10-16T11:48:18;0.88;;;0.20;;
47589;SDS011;33316;52.298;9.056;2022-10-16T11:50:53;0.93;;;0.20;;
47589;SDS011;33316;52.298;9.056;2022-10-16T11:53:23;1.67;;;0.20;;
47589;SDS011;33316;52.298;9.056;2022-10-16T11:56:05;2.63;;;0.20;;
47589;SDS011;33316;52.298;9.056;2022-10-16T11:58:33;0.70;;;0.20;;
47589;SDS011;33316;52.298;9.056;2022-10-16T12:01:17;1.35;;;0.20;;
47589;SDS011;33316;52.298;9.056;2022-10-16T12:03:50;1.95;;;0.20;;
47589;SDS011;33316;52.298;9.056;2022-10-16T12:06:30;0.90;;;0.20;;
47589;SDS011;33316;52.298;9.056;2022-10-16T12:09:00;0.85;;;0.32;;
47589;SDS011;33316;52.298;9.056;2022-10-16T12:11:33;1.27;;;0.20;;
47589;SDS011;33316;52.298;9.056;2022-10-16T12:14:07;1.05;;;0.40;;
47589;SDS011;33316;52.298;9.056;2022-10-16T12:17:02;2.28;;;0.30;;
47589;SDS011;33316;52.298;9.056;2022-10-16T12:19:31;0.60;;;0.17;;
47589;SDS011;33316;52.298;9.056;2022-10-16T12:22:00;1.75;;;0.35;;
47589;SDS011;33316;52.298;9.056;2022-10-16T12:24:31;0.77;;;0.25;;
47589;SDS011;33316;52.298;9.056;2022-10-16T12:27:00;4.28;;;0.35;;
47589;SDS011;33316;52.298;9.056;2022-10-16T12:29:33;1.45;;;0.20;;
47589;SDS011;33316;52.298;9.056;2022-10-16T12:32:02;1.00;;;0.30;;
47589;SDS011;33316;52.298;9.056;2022-10-16T12:34:33;0.38;;;0.20;;
47589;SDS011;33316;52.298;9.056;2022-10-16T12:37:10;0.80;;;0.35;;
47589;SDS011;33316;52.298;9.056;2022-10-16T12:39:40;2.20;;;0.25;;
47589;SDS011;33316;52.298;9.056;2022-10-16T12:42:19;1.77;;;0.40;;
47589;SDS011;33316;52.298;9.056;2022-10-16T12:44:58;1.27;;;0.25;;
47589;SDS011;33316;52.298;9.056;2022-10-16T12:47:35;2.42;;;0.28;;
47589;SDS011;33316;52.298;9.056;2022-10-16T12:50:03;1.88;;;0.30;;
47589;SDS011;33316;52.298;9.056;2022-10-16T12:52:50;1.83;;;0.30;;
47589;SDS011;33316;52.298;9.056;2022-10-16T12:55:17;0.77;;;0.10;;
47589;SDS011;33316;52.298;9.056;2022-10-16T12:57:49;0.77;;;0.30;;
47589;SDS011;33316;52.298;9.056;2022-10-16T13:00:34;1.27;;;0.30;;
47589;SDS011;33316;52.298;9.056;2022-10-16T13:03:24;1.50;;;0.40;;
47589;SDS011;33316;52.298;9.056;2022-10-16T13:06:06;0.47;;;0.22;;
47589;SDS011;33316;52.298;9.056;2022-10-16T13:08:49;1.23;;;0.20;;
47589;SDS011;33316;52.298;9.056;2022-10-16T13:11:41;0.87;;;0.20;;
47589;SDS011;33316;52.298;9.056;2022-10-16T13:14:19;2.55;;;0.30;;
47589;SDS011;33316;52.298;9.056;2022-10-16T13:17:10;1.70;;;0.30;;
47589;SDS011;33316;52.298;9.056;2022-10-16T13:19:42;1.58;;;0.25;;
47589;SDS011;33316;52.298;9.056;2022-10-16T13:22:15;1.58;;;0.40;;
47589;SDS011;33316;52.298;9.056;2022-10-16T13:24:53;1.40;;;0.25;;
47589;SDS011;33316;52.298;9.056;2022-10-16T13:27:31;0.98;;;0.45;;
47589;SDS011;33316;52.298;9.056;2022-10-16T13:30:10;0.90;;;0.32;;
47589;SDS011;33316;52.298;9.056;2022-10-16T13:32:39;0.95;;;0.52;;
47589;SDS011;33316;52.298;9.056;2022-10-16T13:35:18;1.08;;;0.47;;
47589;SDS011;33316;52.298;9.056;2022-10-16T13:37:46;1.17;;;0.47;;
47589;SDS011;33316;52.298;9.056;2022-10-16T13:40:19;0.30;;;0.15;;
47589;SDS011;33316;52.298;9.056;2022-10-16T13:42:48;1.20;;;0.30;;
47589;SDS011;33316;52.298;9.056;2022-10-16T13:45:19;1.20;;;0.50;;
47589;SDS011;33316;52.298;9.056;2022-10-16T13:47:48;4.22;;;0.30;;
47589;SDS011;33316;52.298;9.056;2022-10-16T13:50:16;0.63;;;0.25;;
47589;SDS011;33316;52.298;9.056;2022-10-16T13:52:44;0.57;;;0.28;;
47589;SDS011;33316;52.298;9.056;2022-10-16T13:55:11;0.90;;;0.35;;
47589;SDS011;33316;52.298;9.056;2022-10-16T13:57:40;0.90;;;0.30;;
47589;SDS011;33316;52.298;9.056;2022-10-16T14:00:21;1.45;;;0.47;;
47589;SDS011;33316;52.298;9.056;2022-10-16T14:02:50;0.60;;;0.20;;
47589;SDS011;33316;52.298;9.056;2022-10-16T14:07:47;0.22;;;0.20;;
47589;SDS011;33316;52.298;9.056;2022-10-16T14:12:55;0.63;;;0.20;;
47589;SDS011;33316;52.298;9.056;2022-10-16T14:15:23;1.77;;;0.30;;
47589;SDS011;33316;52.298;9.056;2022-10-16T14:17:50;1.23;;;0.20;;
47589;SDS011;33316;52.298;9.056;2022-10-16T14:20:20;0.45;;;0.15;;
47589;SDS011;33316;52.298;9.056;2022-10-16T14:22:57;0.70;;;0.32;;
47589;SDS011;33316;52.298;9.056;2022-10-16T14:25:26;0.90;;;0.38;;
47589;SDS011;33316;52.298;9.056;2022-10-16T14:28:02;1.25;;;0.30;;
47589;SDS011;33316;52.298;9.056;2022-10-16T14:30:32;1.42;;;0.30;;
47589;SDS011;33316;52.298;9.056;2022-10-16T14:33:01;0.60;;;0.20;;
47589;SDS011;33316;52.298;9.056;2022-10-16T14:35:30;0.28;;;0.20;;
47589;SDS011;33316;52.298;9.056;2022-10-16T14:37:58;0.65;;;0.20;;
47589;SDS011;33316;52.298;9.056;2022-10-16T14:40:28;1.13;;;0.30;;
47589;SDS011;33316;52.298;9.056;2022-10-16T14:42:56;1.15;;;0.20;;
47589;SDS011;33316;52.298;9.056;2022-10-16T14:45:26;0.63;;;0.28;;
47589;SDS011;33316;52.298;9.056;2022-10-16T14:47:55;0.60;;;0.20;;
47589;SDS011;33316;52.298;9.056;2022-10-16T14:50:24;0.90;;;0.17;;
47589;SDS011;33316;52.298;9.056;2022-10-16T14:52:51;2.17;;;0.17;;
47589;SDS011;33316;52.298;9.056;2022-10-16T14:55:17;0.35;;;0.30;;
47589;SDS011;33316;52.298;9.056;2022-10-16T14:57:45;1.35;;;0.30;;
47589;SDS011;33316;52.298;9.056;2022-10-16T15:00:15;1.83;;;0.30;;
47589;SDS011;33316;52.298;9.056;2022-10-16T15:02:45;0.20;;;0.20;;
47589;SDS011;33316;52.298;9.056;2022-10-16T15:05:16;0.45;;;0.13;;
47589;SDS011;33316;52.298;9.056;2022-10-16T15:07:44;0.98;;;0.15;;
47589;SDS011;33316;52.298;9.056;2022-10-16T15:10:11;2.42;;;0.40;;
47589;SDS011;33316;52.298;9.056;2022-10-16T15:12:39;0.75;;;0.30;;
47589;SDS011;33316;52.298;9.056;2022-10-16T15:15:15;0.20;;;0.20;;
47589;SDS011;33316;52.298;9.056;2022-10-16T15:18:08;1.60;;;0.30;;
47589;SDS011;33316;52.298;9.056;2022-10-16T15:20:35;0.95;;;0.30;;
47589;SDS011;33316;52.298;9.056;2022-10-16T15:23:04;0.88;;;0.20;;
47589;SDS011;33316;52.298;9.056;2022-10-16T15:25:34;0.55;;;0.20;;
47589;SDS011;33316;52.298;9.056;2022-10-16T15:28:03;0.90;;;0.20;;
47589;SDS011;33316;52.298;9.056;2022-10-16T15:30:30;2.08;;;0.30;;
47589;SDS011;33316;52.298;9.056;2022-10-16T15:32:57;1.15;;;0.30;;